Time;durP1;ratioP1;P1;durP2;ratioP2;P2;SDS_P1;SDS_P2;PMS_P1;PMS_P2;Temp;Humidity;BMP_temperature;BMP_pressure;BME280_temperature;BME280_humidity;BME280_pressure;Samples;Min_cycle;Max_cycle;Signal;HPM_P1;HPM_P2
2023/06/29 00:00:31;;;;;;;10.30;9.30;;;;;;;17.22;100.00;101524.25;2097090;28;20204;-63
2023/06/29 00:01:31;;;;;;;10.30;9.40;;;;;;;17.19;100.00;101525.19;2104618;28;20270;-64
2023/06/29 00:02:32;;;;;;;10.40;9.50;;;;;;;17.19;100.00;101524.38;2095603;28;20540;-64
2023/06/29 00:03:32;;;;;;;11.60;10.03;;;;;;;17.25;100.00;101526.16;2102538;28;20627;-64
2023/06/29 00:04:34;;;;;;;11.03;9.93;;;;;;;17.26;100.00;101524.13;2110133;28;20188;-64
2023/06/29 00:05:35;;;;;;;10.97;9.87;;;;;;;17.26;100.00;101524.91;2108011;28;20179;-64
2023/06/29 00:06:39;;;;;;;10.00;9.00;;;;;;;17.30;100.00;101525.56;2107808;28;20483;-65
2023/06/29 00:07:39;;;;;;;10.53;9.53;;;;;;;17.29;100.00;101529.59;2109652;28;20879;-65
2023/06/29 00:08:40;;;;;;;10.63;9.53;;;;;;;17.27;100.00;101529.25;2102243;28;20419;-64
2023/06/29 00:09:40;;;;;;;11.13;9.70;;;;;;;17.29;100.00;101532.41;2096856;28;20259;-64
2023/06/29 00:10:41;;;;;;;12.47;9.37;;;;;;;17.32;100.00;101527.91;2104783;28;20719;-64
2023/06/29 00:11:42;;;;;;;11.30;10.10;;;;;;;17.36;100.00;101536.97;2103313;28;20197;-64
2023/06/29 00:12:43;;;;;;;10.77;9.43;;;;;;;17.14;100.00;101508.94;2103221;28;20482;-64
2023/06/29 00:13:43;;;;;;;10.80;9.70;;;;;;;17.25;100.00;101537.34;2095383;28;20624;-64
2023/06/29 00:14:44;;;;;;;10.57;9.60;;;;;;;17.15;100.00;101534.91;2099541;28;20211;-64
2023/06/29 00:15:45;;;;;;;11.33;9.57;;;;;;;16.85;100.00;101499.25;2103601;28;20197;-64
2023/06/29 00:16:45;;;;;;;12.70;9.33;;;;;;;17.05;100.00;101522.88;2102221;28;20244;-64
2023/06/29 00:17:47;;;;;;;15.97;9.73;;;;;;;16.81;100.00;101484.59;2108252;28;20523;-64
2023/06/29 00:18:49;;;;;;;11.20;10.00;;;;;;;17.16;100.00;101537.28;2112387;28;20182;-64
2023/06/29 00:19:49;;;;;;;10.37;9.37;;;;;;;17.05;100.00;101528.47;2095557;28;20854;-64
2023/06/29 00:20:51;;;;;;;12.23;9.53;;;;;;;17.04;100.00;101532.53;2102869;28;20456;-64
2023/06/29 00:21:52;;;;;;;10.40;9.23;;;;;;;16.73;100.00;101491.66;2097816;28;20189;-65
2023/06/29 00:22:53;;;;;;;11.00;9.93;;;;;;;16.99;100.00;101524.72;2101127;28;20447;-64
2023/06/29 00:23:53;;;;;;;10.50;9.50;;;;;;;17.05;100.00;101528.47;2103999;28;20448;-65
2023/06/29 00:24:58;;;;;;;11.00;9.90;;;;;;;16.47;100.00;101445.41;2104141;28;20187;-64
2023/06/29 00:26:01;;;;;;;10.27;9.03;;;;;;;17.03;100.00;101530.16;2104346;28;20199;-64
2023/06/29 00:27:01;;;;;;;11.27;9.97;;;;;;;17.02;100.00;101526.59;2103032;28;20419;-64
2023/06/29 00:28:02;;;;;;;10.97;9.50;;;;;;;17.03;100.00;101521.78;2096067;28;20424;-65
2023/06/29 00:29:02;;;;;;;10.63;9.63;;;;;;;16.69;100.00;101465.81;2103484;28;20202;-64
2023/06/29 00:30:03;;;;;;;10.83;9.60;;;;;;;16.88;100.00;101518.72;2110133;28;20198;-64
2023/06/29 00:31:03;;;;;;;10.80;9.73;;;;;;;16.93;100.00;101520.13;2101591;28;20191;-65
2023/06/29 00:32:04;;;;;;;12.03;9.33;;;;;;;16.93;100.00;101525.72;2103485;28;20202;-64
2023/06/29 00:33:05;;;;;;;11.27;9.77;;;;;;;16.88;100.00;101515.13;2111697;28;20714;-64
2023/06/29 00:34:05;;;;;;;12.30;9.80;;;;;;;16.94;100.00;101524.50;2104161;28;20179;-65
2023/06/29 00:35:06;;;;;;;11.13;10.13;;;;;;;16.91;100.00;101528.22;2097502;28;20221;-64
2023/06/29 00:36:06;;;;;;;11.10;10.00;;;;;;;16.66;100.00;101489.88;2106106;28;20807;-64
2023/06/29 00:37:06;;;;;;;11.53;10.33;;;;;;;16.43;100.00;101459.53;2105904;28;20554;-64
2023/06/29 00:38:07;;;;;;;10.77;9.77;;;;;;;16.89;100.00;101517.47;2099117;28;20187;-65
2023/06/29 00:39:08;;;;;;;11.67;9.37;;;;;;;16.86;100.00;101520.41;2097860;28;20187;-64
2023/06/29 00:40:09;;;;;;;12.07;10.20;;;;;;;16.86;100.00;101515.56;2101520;28;20206;-64
2023/06/29 00:41:09;;;;;;;11.13;10.13;;;;;;;16.84;100.00;101517.25;2102759;28;20671;-64
2023/06/29 00:42:10;;;;;;;10.30;9.30;;;;;;;16.83;100.00;101522.09;2100298;28;20487;-64
2023/06/29 00:43:11;;;;;;;10.57;9.43;;;;;;;16.84;100.00;101528.44;2112899;28;20269;-65
2023/06/29 00:44:11;;;;;;;11.17;10.07;;;;;;;16.86;100.00;101518.34;2097839;28;20633;-64
2023/06/29 00:45:12;;;;;;;11.63;10.50;;;;;;;16.25;100.00;101444.56;2097692;28;20191;-64
2023/06/29 00:46:17;;;;;;;10.23;9.33;;;;;;;16.25;100.00;101433.38;2103876;28;20615;-65
2023/06/29 00:47:17;;;;;;;10.87;9.77;;;;;;;16.85;100.00;101516.81;2111602;28;20249;-64
2023/06/29 00:48:18;;;;;;;11.03;10.07;;;;;;;16.84;100.00;101517.25;2109029;28;20988;-64
2023/06/29 00:49:19;;;;;;;10.93;9.93;;;;;;;16.84;100.00;101522.84;2108550;28;20197;-64
2023/06/29 00:50:21;;;;;;;12.40;9.30;;;;;;;16.86;100.00;101529.56;2111599;28;20185;-64
2023/06/29 00:51:22;;;;;;;11.67;9.77;;;;;;;16.62;100.00;101476.50;2105451;28;20419;-64
2023/06/29 00:52:23;;;;;;;10.60;9.60;;;;;;;16.86;100.00;101514.78;2113135;28;20798;-64
2023/06/29 00:53:24;;;;;;;12.53;9.80;;;;;;;16.88;100.00;101517.16;2105719;28;20252;-64
2023/06/29 00:54:25;;;;;;;11.10;10.00;;;;;;;16.83;100.00;101514.94;2105112;28;20435;-64
2023/06/29 00:55:27;;;;;;;10.37;9.17;;;;;;;16.42;100.00;101446.78;2105371;28;20194;-64
2023/06/29 00:56:30;;;;;;;10.60;9.30;;;;;;;16.80;100.00;101519.41;2105781;28;20569;-65
2023/06/29 00:57:30;;;;;;;10.80;9.70;;;;;;;16.43;100.00;101458.72;2100911;28;20455;-64
2023/06/29 00:58:31;;;;;;;10.43;9.37;;;;;;;16.81;100.00;101521.75;2097069;28;20440;-64
2023/06/29 00:59:31;;;;;;;10.73;9.63;;;;;;;16.77;100.00;101523.09;2101792;28;20183;-65
2023/06/29 01:00:32;;;;;;;10.93;9.90;;;;;;;16.84;100.00;101514.44;2112589;28;20178;-64
2023/06/29 01:01:33;;;;;;;10.50;9.60;;;;;;;16.55;100.00;101469.88;2104996;28;20171;-65
2023/06/29 01:02:39;;;;;;;10.77;9.20;;;;;;;16.85;100.00;101519.59;2097261;28;20424;-64
2023/06/29 01:03:40;;;;;;;10.97;9.83;;;;;;;16.81;100.00;101504.19;2105273;28;20418;-65
2023/06/29 01:04:45;;;;;;;10.90;9.90;;;;;;;15.41;100.00;101290.88;2104825;28;20945;-64
2023/06/29 01:05:47;;;;;;;10.37;9.37;;;;;;;16.85;100.00;101513.25;2104856;28;20200;-64
2023/06/29 01:06:56;;;;;;;10.53;9.50;;;;;;;16.81;100.00;101526.56;2109633;28;20482;-65
2023/06/29 01:08:13;;;;;;;10.87;9.83;;;;;;;16.81;100.00;101523.78;2107676;28;20546;-65
2023/06/29 01:09:14;;;;;;;11.43;10.30;;;;;;;16.38;100.00;101462.88;2104841;28;20448;-64
2023/06/29 01:10:19;;;;;;;11.20;10.10;;;;;;;16.70;100.00;101521.34;2105241;28;20449;-64
2023/06/29 01:11:20;;;;;;;11.77;10.03;;;;;;;16.68;100.00;101517.41;2109625;28;20451;-64
2023/06/29 01:12:21;;;;;;;10.67;9.67;;;;;;;16.25;100.00;101453.72;2106704;28;21032;-65
2023/06/29 01:13:23;;;;;;;10.73;9.67;;;;;;;16.74;100.00;101516.41;2096861;28;20822;-64
2023/06/29 01:14:26;;;;;;;13.30;9.83;;;;;;;16.75;100.00;101517.19;2098491;28;20173;-64
2023/06/29 01:15:28;;;;;;;11.97;10.03;;;;;;;16.44;100.00;101477.88;2105241;28;20829;-65
2023/06/29 01:16:32;;;;;;;10.67;9.47;;;;;;;16.77;100.00;101517.50;2105641;28;20447;-64
2023/06/29 01:17:36;;;;;;;11.10;9.47;;;;;;;16.76;100.00;101518.75;2097216;28;20487;-64
2023/06/29 01:18:37;;;;;;;10.47;9.47;;;;;;;16.49;100.00;101470.94;2104404;28;20515;-64
2023/06/29 01:19:43;;;;;;;10.60;9.60;;;;;;;16.78;100.00;101514.25;2098175;28;20541;-65
2023/06/29 01:20:44;;;;;;;10.33;9.30;;;;;;;16.76;100.00;101511.13;2096932;28;20186;-64
2023/06/29 01:21:54;;;;;;;12.80;10.13;;;;;;;16.70;100.00;101503.78;2107670;28;20534;-64
2023/06/29 01:22:59;;;;;;;12.00;9.60;;;;;;;16.75;100.00;101508.78;2108569;28;20465;-65
2023/06/29 01:24:00;;;;;;;10.57;9.37;;;;;;;16.73;100.00;101514.84;2109889;28;20439;-64
2023/06/29 01:25:01;;;;;;;11.13;10.03;;;;;;;16.66;100.00;101512.28;2105983;28;20441;-64
2023/06/29 01:26:02;;;;;;;11.50;9.97;;;;;;;16.68;100.00;101517.41;2101652;28;20236;-64
2023/06/29 01:27:03;;;;;;;11.83;9.90;;;;;;;16.71;100.00;101514.50;2112226;28;20655;-64
2023/06/29 01:28:08;;;;;;;10.50;9.50;;;;;;;16.73;100.00;101512.03;2104706;28;20426;-64
2023/06/29 01:29:10;;;;;;;11.97;9.10;;;;;;;16.32;100.00;101447.09;2114290;28;20459;-64
2023/06/29 01:30:11;;;;;;;11.30;9.73;;;;;;;16.74;100.00;101513.59;2097258;28;20510;-64
2023/06/29 01:31:12;;;;;;;11.37;9.70;;;;;;;16.73;100.00;101516.09;2096615;28;20446;-64
2023/06/29 01:32:14;;;;;;;11.80;9.67;;;;;;;16.74;100.00;101510.81;2096661;28;20589;-64
2023/06/29 01:33:16;;;;;;;9.80;8.80;;;;;;;16.15;100.00;101403.75;2106169;28;20570;-64
2023/06/29 01:34:16;;;;;;;18.07;9.90;;;;;;;16.78;100.00;101505.88;2105229;28;20448;-64
2023/06/29 01:35:17;;;;;;;10.23;9.20;;;;;;;16.77;100.00;101509.13;2096067;28;20966;-64
2023/06/29 01:36:26;;;;;;;9.80;8.80;;;;;;;16.79;100.00;101498.22;2097037;28;20258;-64
2023/06/29 01:37:30;;;;;;;9.67;8.77;;;;;;;16.76;100.00;101496.34;2096599;28;20194;-65
2023/06/29 01:38:40;;;;;;;10.20;8.80;;;;;;;16.25;100.00;101428.53;2096877;28;20429;-64
2023/06/29 01:39:53;;;;;;;9.10;8.30;;;;;;;16.33;100.00;101443.06;2096780;28;20432;-65
2023/06/29 01:40:57;;;;;;;10.37;8.43;;;;;;;16.71;100.00;101503.31;2105105;28;20458;-64
2023/06/29 01:41:59;;;;;;;9.30;8.37;;;;;;;16.48;100.00;101468.59;2096772;28;20506;-64
2023/06/29 01:43:01;;;;;;;9.30;8.30;;;;;;;16.69;100.00;101500.19;2104964;28;20429;-65
2023/06/29 01:44:05;;;;;;;9.63;8.60;;;;;;;16.75;100.00;101495.56;2105288;28;20435;-64
2023/06/29 01:45:07;;;;;;;11.03;8.67;;;;;;;16.78;100.00;101497.47;2105587;28;20448;-64
2023/06/29 01:46:08;;;;;;;10.27;8.10;;;;;;;16.79;100.00;101495.44;2105126;28;20491;-65
2023/06/29 01:47:10;;;;;;;10.30;8.57;;;;;;;16.12;100.00;101387.88;2100367;28;21238;-64
2023/06/29 01:48:11;;;;;;;9.73;8.77;;;;;;;16.14;100.00;101397.38;2097568;28;20430;-64
2023/06/29 01:49:12;;;;;;;10.43;8.83;;;;;;;16.78;100.00;101497.47;2098951;28;20425;-64
2023/06/29 01:50:14;;;;;;;11.37;8.20;;;;;;;16.65;100.00;101476.38;2104475;28;20661;-64
2023/06/29 01:51:14;;;;;;;9.33;8.53;;;;;;;16.42;100.00;101441.19;2096686;28;20489;-64
2023/06/29 01:52:16;;;;;;;10.73;8.13;;;;;;;16.85;100.00;101483.22;2105576;28;20462;-64
2023/06/29 01:53:16;;;;;;;8.83;7.93;;;;;;;16.84;100.00;101498.44;2105569;28;20179;-65
2023/06/29 01:54:16;;;;;;;9.40;7.90;;;;;;;16.83;100.00;101481.34;2103967;28;20549;-65
2023/06/29 01:55:17;;;;;;;11.47;8.00;;;;;;;16.87;100.00;101485.56;2104184;28;20195;-64
2023/06/29 01:56:17;;;;;;;9.30;7.83;;;;;;;16.85;100.00;101488.03;2100864;28;20850;-64
2023/06/29 01:57:18;;;;;;;9.00;8.10;;;;;;;16.83;100.00;101485.69;2105137;28;20257;-64
2023/06/29 01:58:18;;;;;;;9.20;8.30;;;;;;;16.84;100.00;101476.06;2105155;28;20187;-64
2023/06/29 01:59:19;;;;;;;8.97;8.17;;;;;;;16.72;100.00;101490.09;2104999;28;20175;-64
2023/06/29 02:00:20;;;;;;;9.30;8.20;;;;;;;16.71;100.00;101494.13;2105469;28;20270;-64
2023/06/29 02:01:21;;;;;;;9.70;8.70;;;;;;;16.68;100.00;101475.44;2111760;28;20645;-64
2023/06/29 02:02:21;;;;;;;9.83;8.47;;;;;;;16.67;100.00;101477.47;2106294;28;20525;-63
2023/06/29 02:03:22;;;;;;;9.17;8.27;;;;;;;16.63;100.00;101473.22;2108420;28;20302;-64
2023/06/29 02:04:22;;;;;;;9.33;8.43;;;;;;;16.67;100.00;101479.47;2106153;28;20187;-64
2023/06/29 02:05:23;;;;;;;10.30;8.57;;;;;;;16.66;100.00;101481.47;2100586;28;20180;-64
2023/06/29 02:06:24;;;;;;;9.60;8.60;;;;;;;16.36;100.00;101439.38;2111376;28;20174;-64
2023/06/29 02:07:24;;;;;;;11.07;8.83;;;;;;;16.55;100.00;101488.72;2097328;28;20937;-63
2023/06/29 02:08:25;;;;;;;10.33;8.97;;;;;;;16.48;100.00;101488.19;2097005;28;20194;-64
2023/06/29 02:09:25;;;;;;;10.13;9.07;;;;;;;16.52;100.00;101489.59;2110116;28;20186;-64
2023/06/29 02:10:26;;;;;;;10.57;8.67;;;;;;;16.49;100.00;101484.94;2101466;28;20185;-64
2023/06/29 02:11:26;;;;;;;9.77;8.80;;;;;;;16.51;100.00;101493.63;2100112;28;20202;-64
2023/06/29 02:12:27;;;;;;;11.47;8.80;;;;;;;16.50;100.00;101489.28;2104573;28;20293;-64
2023/06/29 02:13:27;;;;;;;10.13;8.70;;;;;;;16.52;100.00;101487.59;2105306;28;20175;-64
2023/06/29 02:14:28;;;;;;;10.57;9.30;;;;;;;15.96;100.00;101404.78;2103212;28;20260;-65
2023/06/29 02:15:28;;;;;;;11.83;9.50;;;;;;;16.49;100.00;101482.13;2096837;28;20549;-64
2023/06/29 02:16:29;;;;;;;9.53;8.60;;;;;;;16.22;100.00;101439.84;2096731;28;20176;-63
2023/06/29 02:17:29;;;;;;;11.07;8.30;;;;;;;16.49;100.00;101482.13;2102851;28;20219;-63
2023/06/29 02:18:30;;;;;;;10.60;8.33;;;;;;;16.49;100.00;101485.69;2109414;28;20282;-64
2023/06/29 02:19:30;;;;;;;9.83;8.80;;;;;;;16.12;100.00;101422.22;2108432;28;20183;-64
2023/06/29 02:20:30;;;;;;;9.90;8.67;;;;;;;16.53;100.00;101485.56;2098707;28;20732;-64
2023/06/29 02:21:31;;;;;;;10.60;8.70;;;;;;;16.38;100.00;101468.47;2103842;28;20672;-64
2023/06/29 02:22:32;;;;;;;12.73;8.70;;;;;;;16.59;100.00;101481.75;2105326;28;20644;-65
2023/06/29 02:23:32;;;;;;;9.20;8.30;;;;;;;16.57;100.00;101475.03;2113373;28;20732;-64
2023/06/29 02:24:33;;;;;;;10.70;8.73;;;;;;;16.54;100.00;101479.53;2110460;28;20554;-64
2023/06/29 02:25:33;;;;;;;10.03;8.80;;;;;;;16.57;100.00;101480.63;2099050;28;20659;-64
2023/06/29 02:26:33;;;;;;;10.47;8.40;;;;;;;16.02;100.00;101401.00;2106110;28;20201;-64
2023/06/29 02:27:34;;;;;;;9.70;8.70;;;;;;;16.57;100.00;101477.84;2105870;28;20273;-64
2023/06/29 02:28:34;;;;;;;10.97;8.90;;;;;;;16.58;100.00;101474.59;2098614;28;20229;-64
2023/06/29 02:29:35;;;;;;;9.63;8.63;;;;;;;16.59;100.00;101473.34;2103819;28;20687;-64
2023/06/29 02:30:35;;;;;;;10.10;8.27;;;;;;;16.59;100.00;101476.16;2096772;28;20653;-64
2023/06/29 02:31:35;;;;;;;8.73;7.63;;;;;;;16.58;100.00;101476.59;2113803;27;20560;-65
2023/06/29 02:32:36;;;;;;;10.10;8.00;;;;;;;16.59;100.00;101481.75;2105694;28;20217;-64
2023/06/29 02:33:36;;;;;;;14.80;8.47;;;;;;;16.53;100.00;101461.19;2104695;28;20189;-64
2023/06/29 02:34:36;;;;;;;10.67;8.27;;;;;;;15.42;100.00;101290.44;2099763;28;20212;-65
2023/06/29 02:35:37;;;;;;;10.30;8.53;;;;;;;16.16;100.00;101408.91;2096542;28;20205;-64
2023/06/29 02:36:39;;;;;;;10.00;8.63;;;;;;;16.58;100.00;101482.97;2103177;28;20306;-64
2023/06/29 02:37:39;;;;;;;10.67;8.20;;;;;;;16.55;100.00;101478.28;2110186;28;20569;-64
2023/06/29 02:38:40;;;;;;;8.77;7.87;;;;;;;16.55;100.00;101480.31;2097094;28;20418;-64
2023/06/29 02:39:40;;;;;;;9.27;8.33;;;;;;;16.48;100.00;101478.53;2112879;28;20201;-64
2023/06/29 02:40:40;;;;;;;9.23;8.30;;;;;;;16.48;100.00;101486.13;2104967;28;20202;-65
2023/06/29 02:41:41;;;;;;;8.87;7.97;;;;;;;15.86;100.00;101401.13;2097852;28;20188;-64
2023/06/29 02:42:41;;;;;;;12.30;8.37;;;;;;;15.97;100.00;101409.94;2096409;28;20192;-64
2023/06/29 02:43:42;;;;;;;10.70;8.80;;;;;;;16.09;100.00;101428.69;2096872;28;20405;-65
2023/06/29 02:44:42;;;;;;;9.37;8.47;;;;;;;16.38;100.00;101490.03;2096535;28;20273;-64
2023/06/29 02:45:43;;;;;;;9.23;8.33;;;;;;;16.31;100.00;101479.09;2097916;28;20174;-64
2023/06/29 02:46:43;;;;;;;8.73;7.93;;;;;;;16.17;100.00;101465.59;2103923;28;20175;-64
2023/06/29 02:47:43;;;;;;;10.27;8.30;;;;;;;16.10;100.00;101449.84;2096573;28;20180;-64
2023/06/29 02:48:44;;;;;;;9.13;8.20;;;;;;;16.35;100.00;101485.38;2111521;28;20202;-64
2023/06/29 02:49:44;;;;;;;8.90;8.00;;;;;;;16.44;100.00;101491.09;2099509;28;20184;-65
2023/06/29 02:50:45;;;;;;;9.07;8.20;;;;;;;16.45;100.00;101490.63;2105503;28;20197;-64
2023/06/29 02:51:45;;;;;;;11.90;8.33;;;;;;;16.47;100.00;101497.81;2108770;28;20195;-64
2023/06/29 02:52:46;;;;;;;10.60;8.17;;;;;;;16.49;100.00;101496.13;2106542;28;20637;-64
2023/06/29 02:53:46;;;;;;;10.20;8.60;;;;;;;16.52;100.00;101498.00;2109818;28;20556;-64
2023/06/29 02:54:47;;;;;;;9.87;8.20;;;;;;;16.52;100.00;101497.22;2096033;28;20293;-64
2023/06/29 02:55:47;;;;;;;10.47;8.33;;;;;;;16.54;100.00;101503.94;2104765;28;20192;-64
2023/06/29 02:56:48;;;;;;;9.30;8.40;;;;;;;16.45;100.00;101479.44;2103592;28;20218;-64
2023/06/29 02:57:48;;;;;;;12.97;8.87;;;;;;;16.48;100.00;101485.38;2107305;28;20302;-64
2023/06/29 02:58:49;;;;;;;9.60;8.10;;;;;;;16.59;100.00;101495.75;2103286;28;20185;-64
2023/06/29 02:59:49;;;;;;;11.03;8.17;;;;;;;16.63;100.00;101492.03;2103035;28;20198;-64
2023/06/29 03:00:50;;;;;;;12.90;7.97;;;;;;;16.62;100.00;101499.66;2110196;28;20243;-64
2023/06/29 03:01:50;;;;;;;10.43;7.90;;;;;;;16.61;100.00;101498.09;2103415;28;20663;-64
2023/06/29 03:02:51;;;;;;;9.07;8.13;;;;;;;16.65;100.00;101501.56;2095828;28;20169;-64
2023/06/29 03:03:51;;;;;;;10.37;7.50;;;;;;;16.65;100.00;101505.13;2096136;28;20620;-64
2023/06/29 03:04:51;;;;;;;10.80;7.80;;;;;;;16.64;100.00;101509.16;2096038;28;20188;-65
2023/06/29 03:05:52;;;;;;;10.63;8.20;;;;;;;16.66;100.00;101508.72;2096183;28;20244;-64
2023/06/29 03:06:52;;;;;;;8.80;7.73;;;;;;;16.64;100.00;101505.59;2095735;28;20236;-64
2023/06/29 03:07:53;;;;;;;9.43;7.63;;;;;;;16.66;100.00;101505.91;2099650;28;20190;-65
2023/06/29 03:08:53;;;;;;;8.93;7.17;;;;;;;16.37;100.00;101457.72;2101576;28;20194;-65
2023/06/29 03:09:54;;;;;;;11.00;7.70;;;;;;;16.40;100.00;101465.25;2097752;28;20232;-64
2023/06/29 03:10:54;;;;;;;9.33;7.57;;;;;;;16.68;100.00;101503.44;2103734;28;20190;-64
2023/06/29 03:11:54;;;;;;;8.27;7.20;;;;;;;16.73;100.00;101497.25;2096569;28;20190;-64
2023/06/29 03:12:55;;;;;;;8.80;7.30;;;;;;;16.75;100.00;101497.59;2103128;28;20289;-64
2023/06/29 03:13:57;;;;;;;13.47;7.23;;;;;;;16.70;100.00;101503.78;2103065;28;21025;-65
2023/06/29 03:14:57;;;;;;;9.93;7.70;;;;;;;16.65;100.00;101501.56;2101593;28;20221;-64
2023/06/29 03:16:00;;;;;;;10.30;7.60;;;;;;;16.65;100.00;101505.13;2100191;28;20455;-64
2023/06/29 03:17:01;;;;;;;8.00;7.20;;;;;;;16.70;100.00;101506.56;2098680;28;20187;-64
2023/06/29 03:18:01;;;;;;;7.90;7.07;;;;;;;16.70;100.00;101501.75;2103120;28;20477;-64
2023/06/29 03:19:02;;;;;;;7.97;7.20;;;;;;;16.19;100.00;101438.75;2104746;28;20263;-64
2023/06/29 03:20:03;;;;;;;7.97;7.17;;;;;;;16.67;100.00;101493.47;2104694;28;20171;-65
2023/06/29 03:21:04;;;;;;;7.07;6.27;;;;;;;16.75;100.00;101508.78;2096396;28;20188;-64
2023/06/29 03:22:04;;;;;;;7.50;6.80;;;;;;;16.75;100.00;101503.97;2109798;28;20452;-64
2023/06/29 03:23:05;;;;;;;9.03;6.90;;;;;;;16.78;100.00;101508.66;2101429;28;20650;-64
2023/06/29 03:24:05;;;;;;;7.43;6.60;;;;;;;16.83;100.00;101515.69;2100365;28;20217;-64
2023/06/29 03:25:06;;;;;;;9.40;6.80;;;;;;;16.81;100.00;101495.78;2104428;28;20295;-64
2023/06/29 03:26:07;;;;;;;8.17;7.13;;;;;;;16.48;100.00;101444.97;2104407;28;20182;-65
2023/06/29 03:27:07;;;;;;;16.43;6.93;;;;;;;16.87;100.00;101505.16;2103596;28;20418;-64
2023/06/29 03:28:08;;;;;;;8.10;6.73;;;;;;;16.92;100.00;101507.38;2096101;28;20192;-64
2023/06/29 03:29:08;;;;;;;11.63;7.20;;;;;;;16.98;100.00;101505.56;2096204;28;20202;-64
2023/06/29 03:30:09;;;;;;;7.93;6.37;;;;;;;16.67;100.00;101460.69;2102907;28;20197;-64
2023/06/29 03:31:10;;;;;;;8.10;7.10;;;;;;;17.02;100.00;101507.00;2098672;28;20190;-64
2023/06/29 03:32:10;;;;;;;9.13;6.93;;;;;;;17.06;100.00;101504.06;2104701;28;20286;-64
2023/06/29 03:33:10;;;;;;;8.10;7.27;;;;;;;16.76;100.00;101462.78;2106329;28;20198;-64
2023/06/29 03:34:11;;;;;;;11.50;6.90;;;;;;;17.09;100.00;101509.53;2095911;28;20241;-64
2023/06/29 03:35:11;;;;;;;8.77;7.03;;;;;;;17.13;100.00;101503.81;2097529;28;20201;-64
2023/06/29 03:36:12;;;;;;;17.63;7.23;;;;;;;17.18;100.00;101506.00;2113315;28;20178;-64
2023/06/29 03:37:13;;;;;;;10.73;7.37;;;;;;;16.42;100.00;101383.69;2104624;28;20196;-64
2023/06/29 03:38:13;;;;;;;11.30;7.40;;;;;;;17.21;100.00;101502.31;2110580;28;20233;-64
2023/06/29 03:39:14;;;;;;;7.53;6.67;;;;;;;17.19;100.00;101502.75;2106530;28;20192;-64
2023/06/29 03:40:14;;;;;;;7.83;6.80;;;;;;;17.20;100.00;101503.53;2104123;28;20824;-64
2023/06/29 03:41:15;;;;;;;9.80;6.67;;;;;;;17.25;100.00;101511.34;2103981;28;20195;-65
2023/06/29 03:42:15;;;;;;;9.80;7.53;;;;;;;17.26;100.00;101505.28;2105710;28;20240;-64
2023/06/29 03:43:15;;;;;;;9.13;7.10;;;;;;;17.20;100.00;101498.72;2112380;28;20272;-65
2023/06/29 03:44:16;;;;;;;8.03;6.83;;;;;;;17.25;100.00;101514.16;2104515;28;20982;-64
2023/06/29 03:45:16;;;;;;;8.23;6.33;;;;;;;17.25;100.00;101519.75;2112721;28;20691;-64
2023/06/29 03:46:17;;;;;;;8.27;6.73;;;;;;;17.25;100.00;101512.13;2105633;28;20190;-64
2023/06/29 03:47:17;;;;;;;9.40;7.10;;;;;;;17.22;100.00;101507.44;2095748;28;20739;-64
2023/06/29 03:48:20;;;;;;;7.03;6.33;;;;;;;17.14;100.00;101514.56;2095869;28;20689;-64
2023/06/29 03:49:20;;;;;;;8.87;6.50;;;;;;;17.17;100.00;101522.03;2100432;28;20199;-64
2023/06/29 03:50:21;;;;;;;8.10;6.60;;;;;;;17.21;100.00;101519.13;2098449;28;20451;-64
2023/06/29 03:51:21;;;;;;;7.97;6.60;;;;;;;17.22;100.00;101520.69;2104000;28;20295;-64
2023/06/29 03:52:22;;;;;;;7.07;6.30;;;;;;;17.23;100.00;101519.44;2103737;28;20186;-65
2023/06/29 03:53:22;;;;;;;8.27;6.70;;;;;;;17.23;100.00;101514.63;2095930;28;20178;-64
2023/06/29 03:54:23;;;;;;;7.20;6.47;;;;;;;16.79;100.00;101448.63;2103381;28;20196;-64
2023/06/29 03:55:26;;;;;;;9.57;6.70;;;;;;;17.26;100.00;101518.53;2104091;28;20202;-64
2023/06/29 03:56:26;;;;;;;11.33;6.73;;;;;;;17.25;100.00;101522.56;2104300;28;20194;-64
2023/06/29 03:57:27;;;;;;;7.43;6.20;;;;;;;17.23;100.00;101513.84;2108695;28;20451;-64
2023/06/29 03:58:27;;;;;;;7.33;6.63;;;;;;;17.24;100.00;101521.78;2106138;28;20191;-64
2023/06/29 03:59:27;;;;;;;10.00;6.43;;;;;;;17.18;100.00;101526.41;2099634;28;20182;-64
2023/06/29 04:00:28;;;;;;;7.27;6.53;;;;;;;17.14;100.00;101508.94;2110855;28;20185;-65
2023/06/29 04:01:28;;;;;;;7.37;6.07;;;;;;;17.33;100.00;101519.06;2095482;28;20180;-64
2023/06/29 04:02:29;;;;;;;7.60;6.20;;;;;;;16.93;100.00;101462.13;2103277;28;20560;-64
2023/06/29 04:03:30;;;;;;;7.23;5.97;;;;;;;17.39;100.00;101522.06;2097023;28;20676;-64
2023/06/29 04:04:30;;;;;;;7.27;6.13;;;;;;;17.43;100.00;101522.72;2101255;28;20770;-65
2023/06/29 04:05:31;;;;;;;8.07;7.00;;;;;;;17.37;100.00;101514.06;2103764;28;20186;-64
2023/06/29 04:06:32;;;;;;;8.43;6.53;;;;;;;17.36;100.00;101506.91;2103137;28;20217;-64
2023/06/29 04:07:32;;;;;;;9.70;6.73;;;;;;;17.45;100.00;101517.41;2107447;28;20492;-64
2023/06/29 04:08:33;;;;;;;9.43;6.70;;;;;;;17.58;100.00;101517.34;2097703;28;20258;-65
2023/06/29 04:09:34;;;;;;;8.10;7.30;;;;;;;17.60;100.00;101520.47;2112306;28;20189;-65
2023/06/29 04:10:35;;;;;;;9.77;6.50;;;;;;;16.89;100.00;101415.88;2104558;28;20411;-64
2023/06/29 04:11:35;;;;;;;8.33;6.27;;;;;;;17.57;100.00;101507.38;2096468;28;20194;-64
2023/06/29 04:12:35;;;;;;;9.30;6.50;;;;;;;17.63;100.00;101515.50;2108225;28;20440;-64
2023/06/29 04:13:36;;;;;;;9.10;6.43;;;;;;;17.73;100.00;101523.97;2102281;28;20286;-64
2023/06/29 04:14:36;;;;;;;7.23;6.00;;;;;;;17.68;100.00;101516.94;2103168;28;20206;-64
2023/06/29 04:15:37;;;;;;;9.83;6.87;;;;;;;17.48;100.00;101479.28;2109806;28;20182;-64
2023/06/29 04:16:37;;;;;;;7.90;6.40;;;;;;;17.81;100.00;101523.22;2104833;28;20240;-64
2023/06/29 04:17:38;;;;;;;10.60;6.33;;;;;;;17.84;100.00;101522.31;2111422;28;20287;-65
2023/06/29 04:18:38;;;;;;;7.97;5.70;;;;;;;17.90;100.00;101528.13;2103652;28;20183;-64
2023/06/29 04:19:38;;;;;;;7.07;6.13;;;;;;;17.92;100.00;101526.41;2104002;28;20222;-64
2023/06/29 04:20:39;;;;;;;8.80;6.40;;;;;;;17.81;100.00;101519.66;2104169;28;20191;-64
2023/06/29 04:21:40;;;;;;;8.50;6.10;;;;;;;17.83;100.00;101519.97;2104248;28;20269;-64
2023/06/29 04:22:40;;;;;;;7.97;6.27;;;;;;;17.52;100.00;101463.91;2100426;28;20199;-64
2023/06/29 04:23:40;;;;;;;6.60;6.00;;;;;;;17.92;100.00;101521.56;2101002;28;20194;-64
2023/06/29 04:24:41;;;;;;;7.20;6.30;;;;;;;17.96;100.00;101515.81;2109398;28;20187;-64
2023/06/29 04:25:42;;;;;;;6.67;5.97;;;;;;;17.83;100.00;101498.31;2095623;28;20254;-64
2023/06/29 04:26:42;;;;;;;6.50;5.60;;;;;;;18.07;100.00;101518.19;2095889;28;20261;-64
2023/06/29 04:27:43;;;;;;;7.17;6.07;;;;;;;18.13;100.00;101519.94;2110221;28;20682;-64
2023/06/29 04:28:44;;;;;;;7.27;6.30;;;;;;;17.95;100.00;101508.66;2100594;28;20511;-64
2023/06/29 04:29:45;;;;;;;7.33;6.50;;;;;;;18.13;100.00;101517.91;2105638;28;20196;-65
2023/06/29 04:30:45;;;;;;;7.30;6.10;;;;;;;18.21;100.00;101518.41;2106094;28;20476;-64
2023/06/29 04:31:46;;;;;;;7.23;6.50;;;;;;;18.27;100.00;101519.34;2098540;28;20208;-65
2023/06/29 04:32:47;;;;;;;8.83;6.80;;;;;;;18.34;100.00;101521.91;2104956;28;20182;-64
2023/06/29 04:33:47;;;;;;;9.23;6.13;;;;;;;18.39;100.00;101526.09;2113188;28;20263;-64
2023/06/29 04:34:47;;;;;;;10.80;6.77;;;;;;;18.34;100.00;101515.50;2096565;28;20305;-64
2023/06/29 04:35:49;;;;;;;11.47;6.43;;;;;;;17.90;100.00;101441.19;2102828;28;20205;-64
2023/06/29 04:36:50;;;;;;;8.33;6.20;;;;;;;18.38;100.00;101522.50;2098363;28;20186;-64
2023/06/29 04:37:51;;;;;;;9.73;6.60;;;;;;;18.29;100.00;101516.88;2104645;28;20451;-64
2023/06/29 04:38:51;;;;;;;7.77;6.33;;;;;;;18.32;100.00;101523.59;2108777;28;20471;-65